Time;durP1;ratioP1;P1;durP2;ratioP2;P2;SDS_P1;SDS_P2;PMS_P1;PMS_P2;Temp;Humidity;BMP_temperature;BMP_pressure;BME280_temperature;BME280_humidity;BME280_pressure;Samples;Min_cycle;Max_cycle;Signal;HPM_P1;HPM_P2
2023/06/03 00:01:32;;;;;;;7.28;2.80;;;12.50;99.90;;;11.14;100.00;97739.56;4992644;28;20533;-75
2023/06/03 00:04:00;;;;;;;10.10;3.92;;;12.50;99.90;;;10.97;100.00;97734.22;4991005;28;20057;-74
2023/06/03 00:06:27;;;;;;;10.68;3.22;;;12.40;99.90;;;10.96;100.00;97735.13;4991883;28;20085;-74
2023/06/03 00:08:54;;;;;;;9.27;3.50;;;12.30;99.90;;;10.93;100.00;97733.50;4990805;28;20209;-74
2023/06/03 00:11:22;;;;;;;7.65;3.35;;;12.30;99.90;;;10.89;100.00;97735.38;4990714;28;20469;-75
2023/06/03 00:13:49;;;;;;;7.88;3.45;;;12.20;99.90;;;10.86;100.00;97726.88;5010972;28;20133;-75
2023/06/03 00:16:16;;;;;;;8.18;3.42;;;12.20;99.90;;;10.65;100.00;97744.16;4976848;28;20067;-75
2023/06/03 00:18:43;;;;;;;10.00;3.13;;;12.10;99.90;;;10.60;100.00;97740.91;4989869;28;20053;-75
2023/06/03 00:21:11;;;;;;;7.43;3.40;;;12.00;99.90;;;10.66;100.00;97745.88;5004294;28;20054;-75
2023/06/03 00:23:38;;;;;;;9.75;3.25;;;12.00;99.90;;;10.76;100.00;97747.16;5003016;28;20052;-75
2023/06/03 00:26:05;;;;;;;9.00;3.47;;;11.90;99.90;;;10.68;100.00;97738.88;4998750;28;20584;-76
2023/06/03 00:28:33;;;;;;;7.13;2.90;;;11.90;99.90;;;10.77;100.00;97743.69;4970344;28;20050;-75
2023/06/03 00:31:00;;;;;;;12.00;3.70;;;11.90;99.90;;;10.87;100.00;97744.97;4966568;28;20077;-75
2023/06/03 00:33:27;;;;;;;10.57;3.28;;;12.00;99.90;;;10.83;100.00;97748.63;4990825;28;20496;-74
2023/06/03 00:35:54;;;;;;;8.82;3.38;;;12.00;99.90;;;10.85;100.00;97740.75;5009534;28;20049;-75
2023/06/03 00:38:22;;;;;;;11.48;3.30;;;12.00;99.90;;;10.94;100.00;97752.53;5005902;28;20477;-75
2023/06/03 00:40:49;;;;;;;12.88;3.42;;;12.00;99.90;;;10.94;100.00;97737.78;5005797;28;20078;-75
2023/06/03 00:43:16;;;;;;;8.63;3.15;;;12.00;99.90;;;11.05;100.00;97745.13;4986996;28;20053;-75
2023/06/03 00:45:43;;;;;;;7.30;3.38;;;12.10;99.90;;;10.95;100.00;97746.41;5002807;28;20054;-75
2023/06/03 00:48:11;;;;;;;13.25;3.47;;;12.20;99.90;;;10.95;100.00;97741.22;4993557;28;20057;-75
2023/06/03 00:50:39;;;;;;;11.40;3.55;;;12.10;99.90;;;11.00;100.00;97742.75;4994390;28;20109;-75
2023/06/03 00:53:08;;;;;;;7.72;3.10;;;12.20;99.90;;;10.94;100.00;97732.59;5000703;28;20552;-75
2023/06/03 00:55:37;;;;;;;11.80;3.45;;;12.10;99.90;;;10.83;100.00;97740.84;5006188;28;20144;-75
2023/06/03 00:58:04;;;;;;;11.80;3.45;;;12.10;99.90;;;10.84;100.00;97729.53;4989788;28;20490;-75
2023/06/03 01:00:32;;;;;;;9.38;2.90;;;12.00;99.90;;;10.77;100.00;97730.69;5007263;28;20050;-75
2023/06/03 01:03:01;;;;;;;9.38;3.08;;;12.00;99.90;;;10.84;100.00;97731.31;5007966;28;20132;-75
2023/06/03 01:05:29;;;;;;;9.40;3.30;;;12.00;99.90;;;10.82;100.00;97730.50;5009894;28;20057;-74
2023/06/03 01:08:20;;;;;;;6.45;2.72;;;12.00;99.90;;;10.81;100.00;97723.63;4988408;28;20400;-75
2023/06/03 01:11:02;;;;;;;10.95;2.75;;;12.00;99.90;;;10.77;100.00;97727.28;5003330;28;20058;-74
2023/06/03 01:13:39;;;;;;;8.13;2.75;;;12.00;99.90;;;10.72;100.00;97724.00;5000087;28;20046;-75
2023/06/03 01:16:08;;;;;;;8.40;2.78;;;11.90;99.90;;;10.64;100.00;97725.16;5001272;28;20364;-75
2023/06/03 01:18:38;;;;;;;8.32;2.63;;;11.90;99.90;;;10.74;100.00;97715.25;4977644;28;20062;-74
2023/06/03 01:21:05;;;;;;;9.38;3.25;;;11.90;99.90;;;10.71;100.00;97711.94;4980886;28;20058;-75
2023/06/03 01:23:33;;;;;;;7.80;2.65;;;11.90;99.90;;;10.64;100.00;97711.34;4993280;28;21000;-75
2023/06/03 01:26:04;;;;;;;8.35;2.90;;;11.90;99.90;;;10.65;100.00;97720.81;5009093;28;20073;-75
2023/06/03 01:28:32;;;;;;;9.13;2.60;;;11.80;99.90;;;10.60;100.00;97713.19;4991354;28;20041;-75
2023/06/03 01:31:01;;;;;;;11.80;2.75;;;11.80;99.90;;;10.56;100.00;97721.16;5009763;28;20522;-75
2023/06/03 01:33:31;;;;;;;10.10;2.80;;;11.80;99.90;;;10.55;100.00;97714.31;5006252;28;20394;-75
2023/06/03 01:36:03;;;;;;;8.52;2.50;;;11.80;99.90;;;10.58;100.00;97722.81;5002467;28;20050;-75
2023/06/03 01:38:34;;;;;;;10.73;3.20;;;11.70;99.90;;;10.59;100.00;97721.06;4993590;28;20046;-75
2023/06/03 01:41:05;;;;;;;9.35;2.60;;;11.70;99.90;;;10.49;100.00;97717.13;4989595;28;20109;-76
2023/06/03 01:43:32;;;;;;;10.27;2.83;;;11.70;99.90;;;10.33;100.00;97720.38;5001694;28;20042;-75
2023/06/03 01:45:59;;;;;;;9.63;3.33;;;11.70;99.90;;;10.31;100.00;97718.72;4989788;28;20053;-75
2023/06/03 01:48:27;;;;;;;11.05;3.20;;;11.60;99.90;;;10.12;100.00;97715.97;4989821;28;20045;-74
2023/06/03 01:50:55;;;;;;;9.20;3.00;;;11.60;99.90;;;10.12;100.00;97721.16;5007523;28;21138;-75
2023/06/03 01:53:22;;;;;;;9.48;3.03;;;11.40;99.90;;;10.03;100.00;97725.81;4990212;28;20256;-75
2023/06/03 01:55:49;;;;;;;10.07;3.33;;;11.30;99.90;;;9.96;100.00;97731.25;5007819;28;20569;-75
2023/06/03 01:58:17;;;;;;;9.50;2.78;;;11.30;99.90;;;9.88;100.00;97728.97;4999812;28;20669;-75
2023/06/03 02:00:44;;;;;;;7.50;3.30;;;11.20;99.90;;;9.77;100.00;97734.53;4987386;28;20089;-74
2023/06/03 02:03:11;;;;;;;8.55;3.30;;;11.20;99.90;;;9.76;100.00;97744.94;4988487;28;20057;-75
2023/06/03 02:05:38;;;;;;;10.05;3.55;;;11.00;99.90;;;9.58;100.00;97744.75;4982250;28;20475;-75
2023/06/03 02:08:07;;;;;;;7.82;3.22;;;11.00;99.90;;;9.53;100.00;97745.78;5008786;28;20146;-75
2023/06/03 02:10:34;;;;;;;6.10;2.40;;;10.90;99.90;;;9.40;100.00;97745.41;5008762;28;20042;-75
2023/06/03 02:13:02;;;;;;;10.88;2.90;;;10.80;99.90;;;9.40;100.00;97759.19;5005889;28;20524;-75
2023/06/03 02:15:30;;;;;;;13.48;3.17;;;10.80;99.90;;;9.37;100.00;97755.84;5011790;28;20050;-75
2023/06/03 02:17:57;;;;;;;11.23;3.45;;;10.70;99.90;;;9.31;100.00;97753.50;5004718;28;20480;-75
2023/06/03 02:20:24;;;;;;;9.73;2.75;;;10.70;99.90;;;9.30;100.00;97751.78;4998010;28;20054;-75
2023/06/03 02:22:53;;;;;;;7.68;3.15;;;10.60;99.90;;;9.29;100.00;97758.72;4991990;28;20077;-74
2023/06/03 02:25:20;;;;;;;7.82;3.10;;;10.60;99.90;;;9.32;100.00;97752.56;4980822;28;20150;-75
2023/06/03 02:27:47;;;;;;;7.10;2.75;;;10.70;99.90;;;9.21;100.00;97758.97;4993054;28;20092;-75
2023/06/03 02:30:14;;;;;;;8.82;2.95;;;10.60;99.90;;;8.98;100.00;97759.72;5005210;28;20122;-75
2023/06/03 02:32:42;;;;;;;8.57;3.42;;;10.50;99.90;;;8.96;100.00;97766.72;4984864;28;20049;-74
2023/06/03 02:35:09;;;;;;;6.70;2.90;;;10.40;99.90;;;8.84;100.00;97772.28;4987238;28;20137;-75
2023/06/03 02:37:36;;;;;;;8.18;2.90;;;10.30;99.90;;;8.76;100.00;97777.72;4987397;28;20548;-75
2023/06/03 02:40:05;;;;;;;8.05;3.00;;;10.20;99.90;;;8.73;100.00;97774.38;4980159;28;20148;-75
2023/06/03 02:42:32;;;;;;;9.27;3.00;;;10.20;99.90;;;8.63;100.00;97779.00;4985188;28;20511;-75
2023/06/03 02:44:59;;;;;;;10.15;3.60;;;10.10;99.90;;;8.63;100.00;97783.34;5001537;28;20058;-74
2023/06/03 02:47:27;;;;;;;11.43;3.15;;;10.00;99.90;;;8.47;100.00;97783.81;4993214;28;20419;-74
2023/06/03 02:49:55;;;;;;;8.13;3.00;;;10.00;99.90;;;8.60;100.00;97792.06;5003171;28;20056;-74
2023/06/03 02:52:22;;;;;;;8.90;3.25;;;9.90;99.90;;;8.53;100.00;97800.88;5001122;28;20065;-74
2023/06/03 02:54:50;;;;;;;9.25;3.42;;;9.90;99.90;;;8.62;100.00;97802.34;4998010;28;20132;-75
2023/06/03 02:57:17;;;;;;;9.27;3.00;;;10.00;99.90;;;8.51;100.00;97810.44;5009687;28;20458;-75
2023/06/03 02:59:44;;;;;;;7.38;3.13;;;10.00;99.90;;;8.61;100.00;97813.59;4992512;28;20166;-75
2023/06/03 03:02:11;;;;;;;9.13;2.83;;;10.00;99.90;;;8.53;100.00;97817.25;5004583;28;20128;-75
2023/06/03 03:04:39;;;;;;;13.05;4.07;;;9.90;99.90;;;8.34;100.00;97816.91;4988500;28;20050;-75
2023/06/03 03:07:09;;;;;;;9.00;3.63;;;9.90;99.90;;;8.34;100.00;97818.66;5007795;28;20403;-74
2023/06/03 03:09:38;;;;;;;11.80;3.22;;;9.80;99.90;;;8.25;100.00;97817.19;4995679;28;20474;-74
2023/06/03 03:12:08;;;;;;;9.95;3.28;;;9.70;99.90;;;8.29;100.00;97820.56;4987189;28;20054;-75
2023/06/03 03:14:36;;;;;;;7.53;3.67;;;9.60;99.90;;;8.13;100.00;97813.22;5002453;28;20141;-75
2023/06/03 03:17:03;;;;;;;8.05;3.05;;;9.60;99.90;;;8.16;100.00;97817.47;5005877;28;20584;-75
2023/06/03 03:19:31;;;;;;;8.18;2.83;;;9.50;99.90;;;8.24;100.00;97822.44;5010088;28;20117;-75
2023/06/03 03:21:58;;;;;;;10.10;3.03;;;9.50;99.90;;;8.38;100.00;97831.47;5008327;28;20078;-74
2023/06/03 03:24:26;;;;;;;8.15;2.85;;;9.60;99.90;;;8.45;100.00;97826.97;4990717;28;20038;-75
2023/06/03 03:26:53;;;;;;;10.95;3.45;;;9.60;99.90;;;8.40;100.00;97822.81;5004304;28;20045;-75
2023/06/03 03:29:23;;;;;;;7.72;3.42;;;9.60;99.90;;;8.43;100.00;97830.50;4994928;28;20092;-75
2023/06/03 03:31:57;;;;;;;10.23;2.85;;;9.60;99.90;;;8.34;100.00;97822.09;4988635;28;21104;-75
2023/06/03 03:34:25;;;;;;;10.57;3.47;;;9.60;99.90;;;8.37;100.00;97827.19;4998783;28;20060;-75
2023/06/03 03:36:52;;;;;;;8.82;3.53;;;9.60;99.90;;;8.41;100.00;97827.97;4992819;28;20152;-75
2023/06/03 03:39:20;;;;;;;8.60;3.13;;;9.60;99.90;;;8.35;100.00;97828.13;5015478;28;20053;-76
2023/06/03 03:41:47;;;;;;;8.02;3.47;;;9.60;99.90;;;8.53;100.00;97827.63;4973940;28;20078;-75
2023/06/03 03:44:14;;;;;;;18.10;3.85;;;9.70;99.90;;;8.49;100.00;97833.78;5011018;28;20041;-75
2023/06/03 03:46:59;;;;;;;9.82;2.92;;;9.80;99.90;;;8.54;100.00;97828.44;5010197;28;20096;-76
2023/06/03 03:49:31;;;;;;;9.80;3.22;;;9.80;99.90;;;8.61;100.00;97829.13;4992000;28;20765;-76
2023/06/03 03:52:05;;;;;;;9.98;3.13;;;9.80;99.90;;;8.61;100.00;97829.97;5015423;28;20128;-75
2023/06/03 03:54:35;;;;;;;11.50;3.50;;;9.80;99.90;;;8.59;100.00;97827.41;5010736;28;20684;-75
2023/06/03 03:57:12;;;;;;;11.90;3.25;;;9.80;99.90;;;8.62;100.00;97834.25;5001441;28;20103;-75
2023/06/03 03:59:41;;;;;;;15.52;3.72;;;9.80;99.90;;;8.69;100.00;97828.00;4991093;28;20513;-75
2023/06/03 04:02:08;;;;;;;11.13;3.40;;;9.80;99.90;;;8.76;100.00;97826.06;4983270;28;20423;-75
2023/06/03 04:04:45;;;;;;;12.65;3.05;;;10.00;99.90;;;8.82;100.00;97828.44;4992699;28;20128;-75
2023/06/03 04:07:20;;;;;;;12.75;3.58;;;10.00;99.90;;;8.90;100.00;97823.03;5000662;28;20051;-75
2023/06/03 04:09:48;;;;;;;10.85;3.50;;;10.00;99.90;;;8.92;100.00;97819.50;4982301;28;20077;-75
2023/06/03 04:12:32;;;;;;;11.65;2.88;;;10.10;99.90;;;8.92;100.00;97822.09;4992166;28;20167;-75
2023/06/03 04:15:00;;;;;;;9.48;3.47;;;10.10;99.90;;;9.03;100.00;97823.47;4973026;28;20053;-75
2023/06/03 04:17:28;;;;;;;15.55;3.95;;;10.20;99.90;;;9.01;100.00;97818.38;4995631;28;20081;-76
2023/06/03 04:19:55;;;;;;;9.18;2.97;;;10.20;99.90;;;8.98;100.00;97819.28;5012895;28;20139;-76
2023/06/03 04:22:24;;;;;;;11.50;3.50;;;10.20;99.90;;;9.13;100.00;97820.53;4994214;28;20058;-75
2023/06/03 04:24:57;;;;;;;10.05;3.13;;;10.20;99.90;;;9.25;100.00;97819.28;4974901;28;20137;-76
2023/06/03 04:27:25;;;;;;;;;;;10.20;99.90;;;9.22;100.00;97816.81;4994821;28;20046;-75
2023/06/03 04:29:52;;;;;;;8.70;3.20;;;10.30;99.90;;;9.36;100.00;97812.00;4978716;28;19921;-75
2023/06/03 04:32:21;;;;;;;11.65;3.10;;;10.30;99.90;;;9.32;100.00;97800.03;4982992;28;20132;-75
2023/06/03 04:34:54;;;;;;;8.05;3.22;;;10.40;99.90;;;9.45;100.00;97807.41;4988002;28;20046;-75
2023/06/03 04:37:22;;;;;;;10.35;3.70;;;10.50;99.90;;;9.56;100.00;97803.53;4981556;28;20057;-75
2023/06/03 04:39:51;;;;;;;12.75;3.25;;;10.60;99.90;;;9.72;100.00;97803.00;4990624;28;20120;-75
2023/06/03 04:42:18;;;;;;;10.85;3.40;;;10.60;99.90;;;9.82;100.00;97799.19;4999381;28;20105;-75
2023/06/03 04:44:48;;;;;;;13.13;3.53;;;10.70;99.90;;;9.84;100.00;97797.38;4989824;28;20616;-75
2023/06/03 04:47:17;;;;;;;11.05;3.15;;;10.80;99.90;;;10.00;100.00;97789.88;4987793;28;20060;-76
2023/06/03 04:49:47;;;;;;;11.13;3.17;;;10.90;99.90;;;10.04;100.00;97786.28;5006794;28;20529;-75
2023/06/03 04:52:14;;;;;;;12.98;3.47;;;11.00;99.90;;;10.15;100.00;97788.47;4986357;28;20119;-76
2023/06/03 04:54:42;;;;;;;8.98;2.95;;;11.10;99.90;;;10.20;100.00;97787.41;4998809;28;20132;-76
2023/06/03 04:57:09;;;;;;;12.02;4.07;;;11.20;99.90;;;10.24;100.00;97777.72;4987612;28;20490;-76
2023/06/03 04:59:37;;;;;;;12.70;3.58;;;11.20;99.90;;;10.41;100.00;97771.94;5000389;28;20046;-76
2023/06/03 05:02:08;;;;;;;9.63;3.58;;;11.30;99.90;;;10.53;100.00;97781.00;5007634;28;20053;-75
2023/06/03 05:04:37;;;;;;;9.50;3.70;;;11.40;99.90;;;10.58;100.00;97768.69;5009026;28;20050;-76
2023/06/03 05:07:05;;;;;;;11.05;4.13;;;11.50;99.90;;;10.63;100.00;97770.19;4989978;28;20871;-76
2023/06/03 05:09:35;;;;;;;7.25;3.10;;;11.60;99.90;;;10.73;100.00;97762.03;4990550;28;20048;-75
2023/06/03 05:12:02;;;;;;;10.45;3.58;;;11.60;99.90;;;10.79;100.00;97759.22;5005310;28;20148;-75
2023/06/03 05:14:30;;;;;;;11.13;3.63;;;11.70;99.90;;;10.94;100.00;97749.94;4989346;28;20050;-74
2023/06/03 05:16:58;;;;;;;14.63;3.70;;;11.70;99.90;;;11.11;100.00;97755.28;5010392;28;20048;-74
2023/06/03 05:19:25;;;;;;;9.15;3.80;;;11.80;99.90;;;11.28;100.00;97758.00;5010585;28;20591;-75
2023/06/03 05:21:56;;;;;;;12.55;3.47;;;12.00;99.90;;;11.40;100.00;97753.19;5006938;28;20549;-75
2023/06/03 05:24:24;;;;;;;10.15;3.78;;;12.10;99.90;;;11.52;100.00;97748.31;5004959;28;20042;-74
2023/06/03 05:26:51;;;;;;;12.13;3.80;;;12.20;99.90;;;11.55;100.00;97747.31;4990647;28;20526;-75
2023/06/03 05:29:18;;;;;;;8.75;3.03;;;12.40;99.90;;;11.72;100.00;97741.38;5004368;28;20075;-75
2023/06/03 05:31:45;;;;;;;8.73;3.53;;;12.50;99.90;;;11.77;100.00;97744.63;4990414;28;20054;-75
2023/06/03 05:34:14;;;;;;;7.78;2.92;;;12.50;99.90;;;11.91;100.00;97733.63;5005710;28;20050;-75
2023/06/03 05:36:41;;;;;;;10.48;3.67;;;12.60;99.90;;;11.92;100.00;97732.72;5008588;28;20073;-75
2023/06/03 05:39:08;;;;;;;11.65;3.58;;;12.70;99.90;;;11.97;100.00;97728.13;4991646;28;20586;-75
2023/06/03 05:41:35;;;;;;;12.88;3.72;;;12.80;99.90;;;12.15;100.00;97729.06;4984352;28;20073;-74
2023/06/03 05:44:05;;;;;;;12.02;3.70;;;12.90;99.90;;;12.23;100.00;97721.75;4986318;28;20450;-75
2023/06/03 05:46:32;;;;;;;10.15;3.00;;;13.00;99.90;;;12.41;100.00;97720.03;5004045;28;20056;-75
2023/06/03 05:48:59;;;;;;;11.70;3.63;;;13.10;99.90;;;12.39;100.00;97721.84;5003912;28;20045;-75
2023/06/03 05:51:27;;;;;;;10.32;3.85;;;13.20;99.90;;;12.54;100.00;97722.88;4992398;28;20046;-75
2023/06/03 05:53:54;;;;;;;10.43;3.72;;;13.30;99.90;;;12.57;100.00;97717.53;5007480;28;20140;-75
2023/06/03 05:56:21;;;;;;;9.63;3.10;;;13.40;99.90;;;12.68;100.00;97715.25;5006767;28;20145;-75
2023/06/03 05:58:48;;;;;;;10.73;3.45;;;13.40;99.90;;;12.61;100.00;97711.25;5006282;28;20049;-75
2023/06/03 06:01:15;;;;;;;7.70;3.60;;;13.40;99.90;;;12.72;100.00;97708.94;4989038;28;20069;-75
2023/06/03 06:03:45;;;;;;;9.30;3.72;;;13.50;99.90;;;12.63;100.00;97713.78;4984644;28;20137;-75
2023/06/03 06:06:13;;;;;;;7.85;3.47;;;13.60;99.90;;;12.88;100.00;97710.81;4991937;28;20558;-75
2023/06/03 06:08:40;;;;;;;11.57;3.42;;;13.70;99.90;;;13.07;100.00;97706.38;5011712;28;20437;-76
2023/06/03 06:11:07;;;;;;;9.05;3.60;;;13.80;99.90;;;12.96;100.00;97706.06;4970152;28;20046;-76
2023/06/03 06:13:35;;;;;;;8.57;3.47;;;13.80;99.90;;;13.10;100.00;97707.97;4986326;28;20069;-75
2023/06/03 06:16:05;;;;;;;10.27;3.60;;;13.80;99.90;;;13.26;100.00;97706.28;5010718;28;20395;-76
2023/06/03 06:18:35;;;;;;;6.80;3.17;;;13.90;99.90;;;13.36;100.00;97706.66;5006118;28;20108;-76
2023/06/03 06:21:02;;;;;;;8.77;3.33;;;14.10;99.90;;;13.66;100.00;97709.47;4991942;28;20522;-75
2023/06/03 06:23:30;;;;;;;9.20;3.28;;;14.20;99.90;;;13.72;100.00;97709.09;5007615;28;20060;-75
2023/06/03 06:25:57;;;;;;;10.75;3.30;;;14.40;99.90;;;13.66;100.00;97716.41;5004308;28;20255;-75
2023/06/03 06:28:27;;;;;;;8.50;3.95;;;14.50;99.90;;;13.49;100.00;97709.50;4985763;28;20046;-75
2023/06/03 06:31:01;;;;;;;9.77;3.72;;;14.50;99.90;;;13.83;100.00;97702.50;4996589;28;20058;-76
2023/06/03 06:33:34;;;;;;;10.05;3.55;;;14.50;99.90;;;13.82;100.00;97712.06;4976539;28;20049;-76
2023/06/03 06:36:32;;;;;;;13.55;3.65;;;14.60;99.90;;;14.16;100.00;97697.19;5013232;28;20144;-76
2023/06/03 06:39:00;;;;;;;13.80;3.53;;;14.70;99.90;;;14.32;100.00;97700.66;4993880;28;20053;-75
2023/06/03 06:41:27;;;;;;;6.90;3.05;;;14.90;99.90;;;14.47;100.00;97701.56;4982641;28;20053;-75
2023/06/03 06:43:55;;;;;;;12.20;3.53;;;15.00;99.90;;;14.82;100.00;97690.88;5010813;28;20234;-75
2023/06/03 06:46:24;;;;;;;10.40;3.20;;;15.20;99.90;;;14.67;100.00;97695.22;4982181;28;20054;-76
2023/06/03 06:48:52;;;;;;;7.28;2.80;;;15.40;99.90;;;14.83;100.00;97696.03;5009521;28;20522;-75
2023/06/03 06:51:19;;;;;;;8.70;3.17;;;15.50;99.90;;;15.01;100.00;97699.34;5009711;28;20049;-75
2023/06/03 06:53:52;;;;;;;10.40;3.17;;;15.70;99.90;;;14.90;100.00;97685.22;5010880;28;20081;-75
2023/06/03 06:56:21;;;;;;;7.30;3.30;;;15.80;99.90;;;14.79;100.00;97684.06;5012228;28;20050;-75
2023/06/03 06:58:48;;;;;;;9.65;3.50;;;15.80;99.90;;;14.71;100.00;97686.28;5002856;28;20050;-75
2023/06/03 07:01:16;;;;;;;8.35;3.22;;;15.70;99.90;;;14.95;100.00;97693.63;4976108;28;20054;-75
2023/06/03 07:03:43;;;;;;;9.65;3.47;;;15.70;99.90;;;14.84;100.00;97691.63;4992926;28;20120;-76
2023/06/03 07:06:10;;;;;;;10.27;3.42;;;15.80;99.90;;;14.94;100.00;97692.81;5008650;28;20148;-75
2023/06/03 07:08:38;;;;;;;6.57;3.53;;;15.80;99.90;;;14.91;100.00;97692.97;4990589;28;20046;-76
2023/06/03 07:11:05;;;;;;;10.55;3.47;;;15.90;99.90;;;15.01;100.00;97695.91;5004082;28;20057;-76
2023/06/03 07:13:33;;;;;;;15.27;3.65;;;15.90;99.90;;;15.23;100.00;97692.84;4996785;28;20671;-75
2023/06/03 07:16:00;;;;;;;8.32;3.58;;;16.00;99.90;;;15.41;100.00;97686.50;4999999;28;20046;-76
2023/06/03 07:18:33;;;;;;;10.85;3.60;;;16.10;99.90;;;15.54;100.00;97688.38;4993940;28;20376;-75
2023/06/03 07:21:00;;;;;;;7.70;3.08;;;16.20;99.90;;;15.88;100.00;97677.53;5004222;28;20083;-75
2023/06/03 07:23:28;;;;;;;11.27;3.78;;;16.30;99.90;;;15.85;100.00;97685.59;4977650;28;20498;-76
2023/06/03 07:25:57;;;;;;;10.90;3.10;;;16.60;99.90;;;15.75;100.00;97691.50;4975390;28;20069;-76
2023/06/03 07:28:34;;;;;;;11.13;3.22;;;16.60;99.90;;;15.73;100.00;97685.50;4991496;28;20058;-76
2023/06/03 07:31:06;;;;;;;7.47;3.17;;;16.70;99.90;;;15.97;100.00;97686.59;5002689;28;20049;-75
2023/06/03 07:33:52;;;;;;;12.85;3.50;;;16.70;99.90;;;15.88;100.00;97676.72;4991146;28;20445;-76
2023/06/03 07:36:22;;;;;;;8.70;3.08;;;16.70;99.90;;;15.86;100.00;97687.28;4988102;28;20056;-75
2023/06/03 07:39:08;;;;;;;10.00;3.65;;;16.70;99.90;;;15.79;100.00;97690.38;4996719;28;20049;-77
2023/06/03 07:41:41;;;;;;;10.90;3.35;;;16.80;99.90;;;16.13;100.00;97686.47;5009626;28;20045;-75
2023/06/03 07:44:14;;;;;;;9.75;3.17;;;16.70;99.90;;;15.60;100.00;97691.47;4985036;28;20054;-76
2023/06/03 07:46:45;;;;;;;8.68;3.35;;;16.70;99.90;;;15.72;100.00;97692.53;4980216;28;20093;-76
2023/06/03 07:49:16;;;;;;;10.50;3.67;;;16.80;99.90;;;16.04;100.00;97684.44;4981361;28;20057;-76
2023/06/03 07:51:49;;;;;;;10.15;3.55;;;16.70;99.90;;;16.02;100.00;97688.94;4971633;28;20495;-76
2023/06/03 07:54:18;;;;;;;13.95;3.50;;;16.90;99.90;;;15.99;100.00;97697.00;5013487;28;20133;-76
2023/06/03 07:56:46;;;;;;;9.55;3.58;;;17.00;99.90;;;16.02;100.00;97697.63;4995776;28;20129;-76
2023/06/03 07:59:15;;;;;;;10.30;3.65;;;17.00;99.90;;;16.09;100.00;97698.09;5009266;28;20054;-76
2023/06/03 08:01:43;;;;;;;12.02;3.47;;;17.00;99.90;;;15.99;100.00;97692.59;5008593;28;20041;-76
2023/06/03 08:04:20;;;;;;;10.50;3.22;;;17.00;99.90;;;16.20;100.00;97686.94;4997404;28;20060;-76
2023/06/03 08:06:52;;;;;;;8.68;3.40;;;17.10;99.90;;;16.97;100.00;97690.69;5006905;28;20042;-76
2023/06/03 08:09:22;;;;;;;;;;;17.30;99.90;;;16.91;100.00;97691.06;4991878;28;20069;-76
2023/06/03 08:11:50;;;;;;;8.57;3.53;;;17.50;99.90;;;16.50;100.00;97703.28;5008999;28;20291;-77
2023/06/03 08:14:21;;;;;;;10.13;3.53;;;17.50;99.90;;;16.63;100.00;97692.88;4989101;28;20081;-77
2023/06/03 08:16:48;;;;;;;12.57;3.35;;;17.70;99.90;;;16.68;100.00;97690.78;4978714;28;20117;-77
2023/06/03 08:19:17;;;;;;;8.63;3.80;;;17.60;99.90;;;17.14;100.00;97700.03;4996551;28;20061;-76
2023/06/03 08:21:48;;;;;;;11.85;3.30;;;17.70;99.90;;;17.38;100.00;97699.28;4994738;28;20576;-77
2023/06/03 08:24:15;;;;;;;9.57;3.70;;;17.90;99.90;;;17.72;100.00;97697.81;5006981;28;20132;-77
2023/06/03 08:26:45;;;;;;;7.40;3.20;;;18.20;99.90;;;17.29;100.00;97692.91;5013231;28;20057;-77
2023/06/03 08:29:13;;;;;;;8.88;3.90;;;18.40;99.90;;;17.50;100.00;97707.19;5012116;28;20123;-78
2023/06/03 08:31:40;;;;;;;8.13;4.15;;;18.40;99.90;;;17.53;100.00;97699.09;5016116;28;20073;-77
2023/06/03 08:34:08;;;;;;;14.50;4.65;;;18.30;99.90;;;17.94;100.00;97695.38;4989871;28;20100;-77
2023/06/03 08:36:37;;;;;;;8.48;4.15;;;18.40;99.90;;;18.52;100.00;97695.63;5011139;28;20093;-77
2023/06/03 08:39:06;;;;;;;7.85;3.28;;;18.60;99.90;;;18.87;100.00;97696.66;5003811;28;20060;-76
2023/06/03 08:41:40;;;;;;;8.85;3.30;;;18.90;99.90;;;18.87;100.00;97691.38;4988832;28;20140;-77
2023/06/03 08:44:44;;;;;;;8.18;3.40;;;19.00;99.90;;;18.97;100.00;97687.94;4992625;28;20546;-76
2023/06/03 08:47:16;;;;;;;8.48;3.13;;;19.10;99.90;;;19.23;100.00;97687.78;4999889;28;21021;-77
2023/06/03 08:50:16;;;;;;;9.48;3.28;;;19.40;99.90;;;19.95;100.00;97694.53;5008775;28;20101;-77
2023/06/03 08:52:47;;;;;;;7.90;2.80;;;19.70;99.90;;;19.96;100.00;97693.59;4989769;28;20048;-77
2023/06/03 08:55:18;;;;;;;5.43;2.88;;;19.90;99.90;;;19.91;100.00;97687.84;4996767;28;20045;-77
2023/06/03 08:57:56;;;;;;;5.82;2.47;;;20.30;99.90;;;19.88;100.00;97694.19;5012013;28;20050;-77
2023/06/03 09:00:26;;;;;;;8.02;3.08;;;20.60;99.90;;;20.00;100.00;97687.97;4996447;28;20165;-77
2023/06/03 09:02:53;;;;;;;7.93;2.78;;;21.00;99.90;;;20.68;100.00;97682.53;4986084;28;20109;-77
2023/06/03 09:05:22;;;;;;;9.93;2.90;;;21.70;99.90;;;20.58;100.00;97673.72;4974800;28;20054;-77
2023/06/03 09:07:50;;;;;;;6.65;2.72;;;21.80;99.90;;;20.78;100.00;97683.47;4982298;28;20093;-77
2023/06/03 09:10:22;;;;;;;6.45;2.47;;;22.30;99.90;;;20.68;100.00;97691.28;4993367;28;20054;-78
2023/06/03 09:12:50;;;;;;;7.60;2.65;;;22.20;99.90;;;21.25;100.00;97680.44;4990285;28;20049;-78
2023/06/03 09:15:19;;;;;;;7.82;2.92;;;22.70;99.90;;;20.53;100.00;97689.88;5010210;28;20051;-77
2023/06/03 09:17:47;;;;;;;6.47;2.85;;;23.10;98.80;;;21.67;100.00;97681.25;5005625;28;20050;-78
2023/06/03 09:20:14;;;;;;;8.05;3.03;;;23.00;99.50;;;22.11;100.00;97683.63;4988811;28;20096;-77
2023/06/03 09:22:46;;;;;;;10.77;2.97;;;23.60;98.20;;;21.18;100.00;97689.84;5011271;28;20054;-78
2023/06/03 09:25:13;;;;;;;7.20;2.83;;;24.00;96.60;;;21.07;100.00;97685.47;5002992;28;20145;-78
2023/06/03 09:27:41;;;;;;;8.77;2.92;;;24.00;96.50;;;21.29;100.00;97685.34;4984947;28;20407;-77
2023/06/03 09:30:09;;;;;;;7.82;3.10;;;23.90;96.20;;;21.39;100.00;97677.47;4994706;28;20054;-78
2023/06/03 09:32:37;;;;;;;7.05;2.58;;;24.00;95.70;;;21.87;100.00;97681.31;5005158;28;20933;-78
2023/06/03 09:35:06;;;;;;;6.10;2.80;;;23.90;95.70;;;21.25;100.00;97676.00;5004800;28;20050;-78
2023/06/03 09:37:34;;;;;;;5.10;2.47;;;24.00;95.10;;;21.65;100.00;97677.09;4991934;28;20105;-78
2023/06/03 09:40:04;;;;;;;8.90;2.67;;;24.20;95.10;;;21.79;100.00;97681.19;4991057;28;20140;-78
2023/06/03 09:42:45;;;;;;;12.82;3.33;;;23.80;95.60;;;21.41;100.00;97678.19;4988421;28;20053;-78
2023/06/03 09:45:23;;;;;;;12.77;2.70;;;23.90;95.30;;;21.77;100.00;97676.00;4967548;28;20395;-78
2023/06/03 09:47:53;;;;;;;7.57;2.65;;;23.90;94.90;;;21.91;100.00;97670.34;4988655;28;20051;-78
2023/06/03 09:50:23;;;;;;;7.22;2.70;;;24.20;94.90;;;22.85;100.00;97672.59;4995329;28;20103;-78
2023/06/03 09:52:51;;;;;;;7.20;2.83;;;24.20;95.10;;;22.10;100.00;97682.81;5010395;28;20090;-77
2023/06/03 09:55:19;;;;;;;8.60;2.63;;;24.20;94.50;;;21.45;100.00;97684.06;5008636;28;20699;-77
2023/06/03 09:58:12;;;;;;;11.50;3.10;;;24.10;94.10;;;22.57;100.00;97676.94;5009718;28;20570;-78
2023/06/03 10:00:51;;;;;;;7.82;3.22;;;24.10;94.60;;;22.83;100.00;97677.22;4999590;28;20474;-78
2023/06/03 10:03:25;;;;;;;8.43;2.97;;;24.20;94.50;;;22.90;100.00;97675.69;4982983;28;20046;-77
2023/06/03 10:05:52;;;;;;;7.00;2.75;;;24.40;94.50;;;22.84;100.00;97681.53;4964378;28;20085;-77
2023/06/03 10:08:30;;;;;;;6.88;2.60;;;24.80;93.80;;;23.20;100.00;97684.47;4979967;28;20098;-78
2023/06/03 10:10:59;;;;;;;7.55;2.92;;;25.00;93.30;;;23.75;100.00;97681.94;4982606;28;20046;-77
2023/06/03 10:13:27;;;;;;;5.38;2.40;;;25.10;93.30;;;23.38;100.00;97679.25;4988191;28;20049;-78
2023/06/03 10:15:54;;;;;;;6.20;2.60;;;25.50;93.00;;;23.89;100.00;97677.97;5000848;28;20105;-77
2023/06/03 10:18:40;;;;;;;10.05;2.55;;;25.20;93.20;;;23.77;100.00;97672.03;5005818;28;20060;-78
2023/06/03 10:21:12;;;;;;;8.32;3.05;;;25.30;92.90;;;22.80;100.00;97672.19;4989428;28;20132;-78
2023/06/03 10:23:42;;;;;;;8.05;2.97;;;25.20;92.30;;;23.52;100.00;97670.84;5005022;28;20596;-77